createdAt,value
2023-04-24T00:00:48.329Z,10.77
2023-04-24T00:03:15.228Z,11.30
2023-04-24T00:05:42.202Z,10.77
2023-04-24T00:08:08.949Z,11.70
2023-04-24T00:10:35.808Z,6.00
2023-04-24T00:13:03.076Z,7.22
2023-04-24T00:15:29.606Z,8.38
2023-04-24T00:17:56.577Z,10.40
2023-04-24T00:20:23.656Z,15.30
2023-04-24T00:22:50.518Z,8.80
2023-04-24T00:25:17.097Z,6.40
2023-04-24T00:27:43.761Z,10.60
2023-04-24T00:30:10.394Z,7.70
2023-04-24T00:32:36.953Z,8.85
2023-04-24T00:35:03.570Z,8.18
2023-04-24T00:37:30.214Z,6.93
2023-04-24T00:39:56.743Z,6.30
2023-04-24T00:42:23.531Z,6.13
2023-04-24T00:44:50.431Z,8.45
2023-04-24T00:47:17.289Z,6.35
2023-04-24T00:49:44.446Z,5.85
2023-04-24T00:52:11.789Z,5.72
2023-04-24T00:54:38.328Z,6.18
2023-04-24T00:57:04.998Z,8.82
2023-04-24T00:59:31.604Z,3.13
2023-04-24T01:01:58.691Z,4.57
2023-04-24T01:04:25.868Z,5.05
2023-04-24T01:06:53.565Z,3.72
2023-04-24T01:09:21.484Z,5.38
2023-04-24T01:11:48.110Z,7.90
2023-04-24T01:14:14.665Z,7.65
2023-04-24T01:16:42.616Z,6.95
2023-04-24T01:19:10.853Z,6.45
2023-04-24T01:21:38.229Z,10.88
2023-04-24T01:24:06.122Z,11.88
2023-04-24T01:26:32.999Z,11.05
2023-04-24T01:28:59.617Z,7.53
2023-04-24T01:31:26.512Z,10.88
2023-04-24T01:33:53.505Z,8.98
2023-04-24T01:36:20.973Z,9.05
2023-04-24T01:38:47.538Z,8.43
2023-04-24T01:41:14.232Z,13.05
2023-04-24T01:43:41.296Z,7.68
2023-04-24T01:46:08.240Z,12.95
2023-04-24T01:48:36.452Z,6.53
2023-04-24T01:51:03.185Z,5.18
2023-04-24T01:53:30.293Z,9.00
2023-04-24T01:55:57.043Z,10.23
2023-04-24T01:58:25.769Z,10.00
2023-04-24T02:00:52.406Z,8.45
2023-04-24T02:03:19.215Z,8.63
2023-04-24T02:05:46.401Z,15.77
2023-04-24T02:08:13.013Z,10.85
2023-04-24T02:10:39.663Z,9.00
2023-04-24T02:13:06.323Z,14.48
2023-04-24T02:15:32.932Z,7.78
2023-04-24T02:17:59.558Z,7.97
2023-04-24T02:20:28.797Z,10.88
2023-04-24T02:22:57.124Z,8.25
2023-04-24T02:25:23.763Z,13.85
2023-04-24T02:27:50.360Z,10.27
2023-04-24T02:30:16.996Z,10.02
2023-04-24T02:32:43.511Z,13.60
2023-04-24T02:35:11.224Z,9.98
2023-04-24T02:37:37.769Z,10.13
2023-04-24T02:40:05.096Z,7.32
2023-04-24T02:42:31.602Z,12.63
2023-04-24T02:44:58.141Z,12.32
2023-04-24T02:47:24.930Z,9.20
2023-04-24T02:49:51.700Z,15.43
2023-04-24T02:52:18.448Z,13.60
2023-04-24T02:54:45.243Z,11.65
2023-04-24T02:57:11.774Z,7.07
2023-04-24T02:59:41.795Z,9.15
2023-04-24T03:02:08.680Z,9.63
2023-04-24T03:04:35.381Z,12.15
2023-04-24T03:07:02.458Z,13.07
2023-04-24T03:09:29.037Z,9.90
2023-04-24T03:11:56.647Z,13.40
2023-04-24T03:14:25.308Z,12.20
2023-04-24T03:16:52.027Z,16.52
2023-04-24T03:19:18.793Z,13.20
2023-04-24T03:21:57.293Z,12.55
2023-04-24T03:24:24.248Z,11.52
2023-04-24T03:26:50.955Z,12.77
2023-04-24T03:29:32.475Z,14.57
2023-04-24T03:31:59.416Z,11.35
2023-04-24T03:34:29.202Z,15.25
2023-04-24T03:36:57.279Z,12.48
2023-04-24T03:39:26.321Z,13.07
2023-04-24T03:41:55.652Z,15.73
2023-04-24T03:44:27.902Z,10.35
2023-04-24T03:46:55.371Z,12.55
2023-04-24T03:49:24.238Z,14.13
2023-04-24T03:51:51.771Z,17.45
2023-04-24T03:54:22.586Z,17.35
2023-04-24T03:56:51.049Z,12.15
2023-04-24T03:59:18.249Z,13.88
2023-04-24T04:01:50.036Z,14.50
2023-04-24T04:04:17.887Z,12.73
2023-04-24T04:06:45.538Z,10.52
2023-04-24T04:09:12.453Z,14.85
2023-04-24T04:11:39.120Z,11.98
2023-04-24T04:14:06.372Z,11.35
2023-04-24T04:16:34.719Z,14.85
2023-04-24T04:19:04.084Z,12.10
2023-04-24T04:21:32.228Z,13.85
2023-04-24T04:24:12.854Z,12.52
2023-04-24T04:26:47.417Z,13.07
2023-04-24T04:29:21.638Z,11.32
2023-04-24T04:31:50.665Z,14.50
2023-04-24T04:34:17.279Z,13.15
2023-04-24T04:36:45.402Z,12.93
2023-04-24T04:39:31.701Z,14.75
2023-04-24T04:42:07.887Z,17.58
2023-04-24T04:44:41.264Z,15.55
2023-04-24T04:49:39.615Z,11.85
2023-04-24T04:52:11.011Z,14.80
2023-04-24T04:54:37.882Z,15.88
2023-04-24T04:57:04.734Z,15.52
2023-04-24T04:59:32.192Z,16.77
2023-04-24T05:02:05.104Z,10.40
2023-04-24T05:04:32.413Z,12.68
2023-04-24T05:06:59.250Z,14.85
2023-04-24T05:09:30.347Z,13.32
2023-04-24T05:12:03.268Z,14.07
2023-04-24T05:14:34.402Z,13.80
2023-04-24T05:17:01.980Z,8.80
2023-04-24T05:19:29.969Z,8.75
2023-04-24T05:21:56.557Z,12.15
2023-04-24T05:24:23.327Z,12.63
2023-04-24T05:27:06.784Z,11.40
2023-04-24T05:29:38.285Z,14.52
2023-04-24T05:32:05.889Z,15.90
2023-04-24T05:34:32.871Z,12.95
2023-04-24T05:36:59.472Z,12.80
2023-04-24T05:39:34.292Z,9.02
2023-04-24T05:42:11.175Z,16.48
2023-04-24T05:44:37.841Z,12.98
2023-04-24T05:47:04.979Z,13.90
2023-04-24T05:49:32.631Z,12.32
2023-04-24T05:51:59.417Z,11.38
2023-04-24T05:54:26.022Z,18.30
2023-04-24T05:56:52.934Z,8.77
2023-04-24T05:59:30.027Z,12.15
2023-04-24T06:01:57.975Z,13.65
2023-04-24T06:04:25.944Z,8.05
2023-04-24T06:06:56.802Z,9.80
2023-04-24T06:09:23.955Z,8.20
2023-04-24T06:11:50.936Z,8.93
2023-04-24T06:14:18.266Z,9.13
2023-04-24T06:17:03.274Z,9.30
2023-04-24T06:19:36.905Z,9.70
2023-04-24T06:22:03.843Z,9.63
2023-04-24T06:24:31.047Z,8.50
2023-04-24T06:26:59.986Z,11.38
2023-04-24T06:29:26.555Z,12.75
2023-04-24T06:31:53.197Z,10.85
2023-04-24T06:34:20.066Z,11.65
2023-04-24T06:36:47.611Z,14.57
2023-04-24T06:39:14.073Z,14.82
2023-04-24T06:41:41.133Z,12.07
2023-04-24T06:44:09.780Z,16.60
2023-04-24T06:46:36.496Z,14.68
2023-04-24T06:49:03.723Z,9.27
2023-04-24T06:51:30.356Z,10.93
2023-04-24T06:53:59.689Z,11.32
2023-04-24T06:56:30.483Z,12.50
2023-04-24T06:58:57.255Z,13.07
2023-04-24T07:01:24.096Z,12.80
2023-04-24T07:03:51.102Z,9.00
2023-04-24T07:06:19.668Z,11.38
2023-04-24T07:08:46.668Z,11.82
2023-04-24T07:11:13.303Z,15.82
2023-04-24T07:13:42.987Z,14.90
2023-04-24T07:16:09.961Z,11.23
2023-04-24T07:18:37.534Z,13.30
2023-04-24T07:21:04.050Z,16.80
2023-04-24T07:23:31.741Z,11.95
2023-04-24T07:25:58.800Z,14.57
2023-04-24T07:28:25.844Z,12.25
2023-04-24T07:30:55.107Z,10.75
2023-04-24T07:33:22.063Z,10.82
2023-04-24T07:35:48.860Z,8.13
2023-04-24T07:38:15.495Z,7.47
2023-04-24T07:40:42.857Z,10.13
2023-04-24T07:43:09.525Z,12.38
2023-04-24T07:45:38.605Z,10.20
2023-04-24T07:48:05.531Z,13.35
2023-04-24T07:50:32.391Z,9.77
2023-04-24T07:52:58.998Z,10.30
2023-04-24T07:55:28.179Z,9.75
2023-04-24T07:57:56.272Z,9.23
2023-04-24T08:00:22.903Z,6.57
2023-04-24T08:02:49.904Z,9.50
2023-04-24T08:05:17.137Z,9.68
2023-04-24T08:07:43.939Z,10.30
2023-04-24T08:10:11.496Z,7.30
2023-04-24T08:12:38.310Z,6.82
2023-04-24T08:15:05.619Z,7.45
2023-04-24T08:17:32.179Z,5.90
2023-04-24T08:20:02.404Z,7.50
2023-04-24T08:22:29.320Z,7.00
2023-04-24T08:24:57.051Z,6.15
2023-04-24T08:27:24.377Z,8.43
2023-04-24T08:29:51.170Z,9.13
2023-04-24T08:32:17.961Z,8.60
2023-04-24T08:34:44.431Z,7.85
2023-04-24T08:37:11.115Z,5.72
2023-04-24T08:39:37.950Z,9.32
2023-04-24T08:42:08.938Z,6.40
2023-04-24T08:44:36.805Z,8.90
2023-04-24T08:47:03.367Z,6.82
2023-04-24T08:49:30.497Z,7.28
2023-04-24T08:51:57.502Z,6.07
2023-04-24T08:54:24.366Z,9.07
2023-04-24T08:56:51.434Z,9.90
2023-04-24T08:59:18.104Z,8.80
2023-04-24T09:01:46.218Z,9.48
2023-04-24T09:04:14.569Z,5.82
2023-04-24T09:06:41.531Z,6.80
2023-04-24T09:09:09.223Z,5.45
2023-04-24T09:11:35.852Z,4.40
2023-04-24T09:14:02.658Z,7.88
2023-04-24T09:16:29.330Z,6.55
2023-04-24T09:18:56.457Z,5.07
2023-04-24T09:21:24.357Z,4.70
2023-04-24T09:24:01.481Z,7.90
2023-04-24T09:26:30.306Z,5.47
2023-04-24T09:28:56.804Z,3.67
2023-04-24T09:31:24.206Z,6.85
2023-04-24T09:34:08.358Z,4.82
2023-04-24T09:36:39.291Z,5.75
2023-04-24T09:39:10.588Z,5.97
2023-04-24T09:41:44.255Z,4.10
2023-04-24T09:44:14.975Z,2.45
2023-04-24T09:46:42.568Z,3.92
2023-04-24T09:49:17.390Z,3.40
2023-04-24T09:51:44.154Z,4.30
2023-04-24T09:54:22.180Z,4.22
2023-04-24T09:56:50.329Z,3.53
2023-04-24T09:59:18.141Z,4.15
2023-04-24T10:01:45.934Z,4.63
2023-04-24T10:04:22.754Z,5.00
2023-04-24T10:06:50.385Z,2.60
2023-04-24T10:09:17.307Z,8.07
2023-04-24T10:11:46.161Z,3.85
2023-04-24T10:14:21.584Z,2.72
2023-04-24T10:16:48.803Z,3.20
2023-04-24T10:19:26.533Z,2.53
2023-04-24T10:21:53.586Z,3.28
2023-04-24T10:24:22.875Z,2.88
2023-04-24T10:26:49.629Z,3.53
2023-04-24T10:29:18.087Z,4.05
2023-04-24T10:31:48.245Z,2.20
2023-04-24T10:34:33.057Z,6.10
2023-04-24T10:36:59.651Z,3.97
2023-04-24T10:39:27.664Z,5.75
2023-04-24T10:41:55.399Z,6.22
2023-04-24T10:44:23.348Z,5.25
2023-04-24T10:46:54.019Z,2.78
2023-04-24T10:49:28.882Z,4.85
2023-04-24T10:52:00.877Z,6.35
2023-04-24T10:54:35.006Z,5.65
2023-04-24T10:57:23.071Z,4.82
2023-04-24T11:00:10.604Z,2.70
2023-04-24T11:02:38.398Z,7.40
2023-04-24T11:05:05.342Z,5.68
2023-04-24T11:07:51.966Z,3.88
2023-04-24T11:10:39.102Z,3.53
2023-04-24T11:13:05.708Z,6.47
2023-04-24T11:15:32.220Z,4.85
2023-04-24T11:17:59.061Z,4.97
2023-04-24T11:20:28.549Z,4.13
2023-04-24T11:22:56.212Z,5.93
2023-04-24T11:25:26.252Z,3.90
2023-04-24T11:28:03.655Z,4.10
2023-04-24T11:30:30.623Z,4.38
2023-04-24T11:33:03.026Z,2.90
2023-04-24T11:35:31.719Z,4.47
2023-04-24T11:40:28.208Z,5.88
2023-04-24T11:42:57.449Z,6.03
2023-04-24T11:45:25.475Z,3.65
2023-04-24T11:47:52.238Z,3.55
2023-04-24T11:50:20.657Z,4.68
2023-04-24T11:52:47.995Z,5.18
2023-04-24T11:55:20.532Z,4.95
2023-04-24T11:57:48.356Z,4.35
2023-04-24T12:00:22.388Z,5.82
2023-04-24T12:02:50.304Z,5.05
2023-04-24T12:05:24.747Z,3.72
2023-04-24T12:07:51.737Z,4.95
2023-04-24T12:10:22.299Z,4.97
2023-04-24T12:12:51.409Z,5.00
2023-04-24T12:15:19.038Z,4.50
2023-04-24T12:17:45.955Z,10.65
2023-04-24T12:20:15.728Z,5.38
2023-04-24T12:22:52.184Z,6.53
2023-04-24T12:25:19.859Z,6.57
2023-04-24T12:27:46.834Z,5.38
2023-04-24T12:30:14.960Z,6.68
2023-04-24T12:32:49.200Z,5.95
2023-04-24T12:35:26.546Z,6.50
2023-04-24T12:37:53.084Z,5.05
2023-04-24T12:40:21.000Z,6.18
2023-04-24T12:42:50.981Z,3.42
2023-04-24T12:45:18.788Z,3.60
2023-04-24T12:47:45.904Z,6.15
2023-04-24T12:50:13.469Z,7.57
2023-04-24T12:52:40.445Z,5.53
2023-04-24T12:55:10.410Z,4.85
2023-04-24T12:57:38.026Z,7.20
2023-04-24T13:00:05.563Z,10.98
2023-04-24T13:02:32.551Z,5.18
2023-04-24T13:04:59.667Z,4.70
2023-04-24T13:07:26.409Z,5.75
2023-04-24T13:09:53.054Z,5.55
2023-04-24T13:12:19.894Z,7.97
2023-04-24T13:14:46.691Z,7.10
2023-04-24T13:17:14.152Z,5.80
2023-04-24T13:19:41.639Z,4.03
2023-04-24T13:22:10.951Z,6.50
2023-04-24T13:24:39.860Z,4.57
2023-04-24T13:27:06.671Z,6.63
2023-04-24T13:29:33.255Z,5.50
2023-04-24T13:32:00.638Z,6.53
2023-04-24T13:34:27.426Z,5.82
2023-04-24T13:36:54.823Z,5.80
2023-04-24T13:39:22.102Z,5.47
2023-04-24T13:41:51.955Z,9.27
2023-04-24T13:44:19.666Z,6.20
2023-04-24T13:46:47.038Z,5.15
2023-04-24T13:49:14.445Z,9.52
2023-04-24T13:51:41.395Z,4.32
2023-04-24T13:54:08.042Z,6.60
2023-04-24T13:56:34.707Z,6.93
2023-04-24T13:59:04.667Z,9.80
2023-04-24T14:01:31.920Z,7.35
2023-04-24T14:03:58.733Z,8.77
2023-04-24T14:06:25.458Z,7.97
2023-04-24T14:08:52.305Z,7.65
2023-04-24T14:11:19.798Z,6.90
2023-04-24T14:13:47.037Z,8.57
2023-04-24T14:16:14.041Z,6.78
2023-04-24T14:18:40.796Z,6.18
2023-04-24T14:21:07.551Z,8.75
2023-04-24T14:23:34.254Z,7.35
2023-04-24T14:26:00.935Z,7.97
2023-04-24T14:28:27.602Z,6.28
2023-04-24T14:30:54.467Z,6.10
2023-04-24T14:33:21.070Z,5.63
2023-04-24T14:35:47.777Z,6.45
2023-04-24T14:38:14.593Z,5.75
2023-04-24T14:43:27.722Z,6.38
2023-04-24T14:45:54.513Z,5.43
2023-04-24T14:48:21.200Z,4.60
2023-04-24T14:50:47.901Z,7.20
2023-04-24T14:53:15.339Z,5.00
2023-04-24T14:55:41.860Z,13.45
2023-04-24T14:58:08.510Z,6.55
2023-04-24T15:00:35.158Z,8.38
2023-04-24T15:03:02.395Z,5.32
2023-04-24T15:05:29.864Z,5.07
2023-04-24T15:07:56.946Z,7.40
2023-04-24T15:10:24.828Z,6.45
2023-04-24T15:12:51.365Z,5.25
2023-04-24T15:15:18.319Z,7.25
2023-04-24T15:17:44.886Z,4.70
2023-04-24T15:20:11.525Z,5.07
2023-04-24T15:22:38.231Z,5.82
2023-04-24T15:25:05.571Z,8.80
2023-04-24T15:27:46.056Z,4.85
2023-04-24T15:32:56.129Z,8.68
2023-04-24T15:35:22.779Z,6.18
2023-04-24T15:37:50.194Z,8.93
2023-04-24T15:40:16.909Z,7.72
2023-04-24T15:42:43.809Z,7.57
2023-04-24T15:45:10.854Z,6.07
2023-04-24T15:47:37.592Z,8.32
2023-04-24T15:50:04.978Z,6.80
2023-04-24T15:52:31.535Z,8.45
2023-04-24T15:54:58.104Z,6.18
2023-04-24T15:57:24.761Z,5.55
2023-04-24T15:59:51.374Z,7.82
2023-04-24T16:02:21.354Z,8.93
2023-04-24T16:04:48.825Z,8.95
2023-04-24T16:07:15.721Z,7.10
2023-04-24T16:09:42.711Z,15.82
2023-04-24T16:12:10.423Z,6.43
2023-04-24T16:14:37.912Z,7.47
2023-04-24T16:17:05.155Z,13.90
2023-04-24T16:19:34.188Z,8.85
2023-04-24T16:22:00.745Z,12.75
2023-04-24T16:24:28.412Z,9.43
2023-04-24T16:26:56.438Z,12.25
2023-04-24T16:29:22.992Z,14.00
2023-04-24T16:31:49.710Z,17.58
2023-04-24T16:34:16.589Z,10.20
2023-04-24T16:36:54.157Z,7.30
2023-04-24T16:39:22.197Z,7.03
2023-04-24T16:41:49.781Z,9.13
2023-04-24T16:44:16.654Z,8.23
2023-04-24T16:46:43.169Z,8.27
2023-04-24T16:49:09.914Z,5.05
2023-04-24T16:51:36.775Z,7.78
2023-04-24T16:54:03.514Z,6.78
2023-04-24T16:56:30.011Z,9.77
2023-04-24T16:58:56.757Z,5.53
2023-04-24T17:01:23.948Z,8.18
2023-04-24T17:03:50.798Z,8.50
2023-04-24T17:06:17.465Z,7.03
2023-04-24T17:08:43.969Z,9.40
2023-04-24T17:11:10.678Z,6.90
2023-04-24T17:13:37.399Z,8.20
2023-04-24T17:16:04.168Z,6.13
2023-04-24T17:18:30.943Z,10.48
2023-04-24T17:20:57.402Z,8.35
2023-04-24T17:23:24.167Z,8.57
2023-04-24T17:25:50.847Z,7.53
2023-04-24T17:28:24.221Z,4.90
2023-04-24T17:30:51.035Z,9.32
2023-04-24T17:33:17.670Z,9.38
2023-04-24T17:35:44.350Z,8.00
2023-04-24T17:38:10.904Z,5.40
2023-04-24T17:40:38.504Z,9.60
2023-04-24T17:43:05.414Z,10.10
2023-04-24T17:45:32.311Z,8.52
2023-04-24T17:47:58.875Z,13.88
2023-04-24T17:50:25.910Z,11.10
2023-04-24T17:52:52.456Z,12.50
2023-04-24T17:55:19.140Z,10.20
2023-04-24T17:57:45.842Z,7.90
2023-04-24T18:00:12.851Z,7.35
2023-04-24T18:02:39.502Z,8.43
2023-04-24T18:05:06.410Z,7.68
2023-04-24T18:07:34.121Z,12.65
2023-04-24T18:10:00.965Z,6.38
2023-04-24T18:12:27.636Z,6.75
2023-04-24T18:15:02.979Z,12.02
2023-04-24T18:17:40.307Z,12.95
2023-04-24T18:20:07.088Z,9.80
2023-04-24T18:22:33.722Z,11.75
2023-04-24T18:25:00.367Z,13.18
2023-04-24T18:27:30.855Z,12.48
2023-04-24T18:30:00.626Z,14.48
2023-04-24T18:32:27.458Z,14.27
2023-04-24T18:34:54.101Z,12.80
2023-04-24T18:37:20.804Z,11.20
2023-04-24T18:39:47.565Z,9.68
2023-04-24T18:42:14.247Z,15.90
2023-04-24T18:44:42.822Z,10.10
2023-04-24T18:47:10.233Z,11.05
2023-04-24T18:49:37.206Z,13.68
2023-04-24T18:52:12.817Z,12.10
2023-04-24T18:54:39.476Z,15.45
2023-04-24T18:57:06.729Z,14.57
2023-04-24T18:59:33.244Z,8.05
2023-04-24T19:01:59.858Z,11.10
2023-04-24T19:04:29.603Z,11.43
2023-04-24T19:06:59.723Z,11.80
2023-04-24T19:09:32.243Z,9.00
2023-04-24T19:12:00.249Z,10.00
2023-04-24T19:14:32.185Z,13.75
2023-04-24T19:16:59.092Z,10.60
2023-04-24T19:19:27.595Z,11.95
2023-04-24T19:21:54.646Z,10.45
2023-04-24T19:24:24.347Z,14.20
2023-04-24T19:26:52.396Z,13.35
2023-04-24T19:29:19.173Z,10.27
2023-04-24T19:31:48.819Z,12.38
2023-04-24T19:34:15.520Z,12.15
2023-04-24T19:36:43.140Z,11.68
2023-04-24T19:39:09.640Z,11.05
2023-04-24T19:41:38.922Z,11.50
2023-04-24T19:44:05.568Z,17.33
2023-04-24T19:46:32.378Z,12.35
2023-04-24T19:48:59.039Z,14.45
2023-04-24T19:51:26.285Z,11.98
2023-04-24T19:53:53.481Z,11.32
2023-04-24T19:56:20.953Z,11.07
2023-04-24T19:58:49.336Z,12.40
2023-04-24T20:01:26.871Z,9.90
2023-04-24T20:03:53.880Z,14.60
2023-04-24T20:06:20.613Z,9.60
2023-04-24T20:08:47.374Z,11.75
2023-04-24T20:11:14.283Z,12.05
2023-04-24T20:13:41.358Z,9.63
2023-04-24T20:16:11.030Z,10.95
2023-04-24T20:18:38.063Z,13.63
2023-04-24T20:21:04.717Z,13.93
2023-04-24T20:23:31.414Z,8.38
2023-04-24T20:25:58.854Z,12.68
2023-04-24T20:28:30.189Z,11.68
2023-04-24T20:30:57.914Z,10.35
2023-04-24T20:33:24.390Z,11.07
2023-04-24T20:35:52.475Z,8.00
2023-04-24T20:38:19.377Z,10.07
2023-04-24T20:40:57.279Z,10.38
2023-04-24T20:43:29.465Z,12.73
2023-04-24T20:45:58.753Z,12.65
2023-04-24T20:48:32.613Z,16.77
2023-04-24T20:51:02.466Z,14.07
2023-04-24T20:53:34.594Z,15.32
2023-04-24T20:56:04.192Z,11.75
2023-04-24T20:58:30.880Z,8.27
2023-04-24T21:01:01.214Z,15.05
2023-04-24T21:03:30.820Z,15.48
2023-04-24T21:05:57.627Z,15.65
2023-04-24T21:08:31.625Z,16.25
2023-04-24T21:11:09.055Z,11.90
2023-04-24T21:13:35.846Z,16.42
2023-04-24T21:16:05.881Z,15.38
2023-04-24T21:18:33.030Z,18.08
2023-04-24T21:20:59.593Z,14.70
2023-04-24T21:23:26.550Z,16.42
2023-04-24T21:25:53.149Z,10.85
2023-04-24T21:28:19.963Z,15.57
2023-04-24T21:30:46.456Z,14.30
2023-04-24T21:33:13.078Z,12.85
2023-04-24T21:35:39.638Z,14.45
2023-04-24T21:38:06.233Z,12.77
2023-04-24T21:40:32.760Z,15.38
2023-04-24T21:42:59.474Z,13.85
2023-04-24T21:45:26.003Z,16.40
2023-04-24T21:47:52.611Z,13.75
2023-04-24T21:50:19.142Z,15.60
2023-04-24T21:52:45.754Z,15.68
2023-04-24T21:55:12.285Z,13.90
2023-04-24T21:57:38.911Z,10.73
2023-04-24T22:00:07.804Z,12.98
2023-04-24T22:02:35.364Z,12.90
2023-04-24T22:05:04.434Z,15.52
2023-04-24T22:07:34.050Z,16.58
2023-04-24T22:10:00.513Z,12.45
2023-04-24T22:12:27.323Z,14.18
2023-04-24T22:14:53.811Z,11.20
2023-04-24T22:17:20.386Z,16.35
2023-04-24T22:19:47.018Z,14.48
2023-04-24T22:22:13.650Z,11.27
2023-04-24T22:24:40.192Z,14.07
2023-04-24T22:27:06.840Z,11.35
2023-04-24T22:29:33.440Z,11.50
2023-04-24T22:32:00.207Z,8.00
2023-04-24T22:34:27.183Z,12.48
2023-04-24T22:36:58.048Z,12.18
2023-04-24T22:39:24.681Z,11.40
2023-04-24T22:41:51.395Z,12.40
2023-04-24T22:44:18.117Z,11.25
2023-04-24T22:46:45.392Z,8.38
2023-04-24T22:49:12.332Z,11.73
2023-04-24T22:51:40.620Z,10.35
2023-04-24T22:54:07.308Z,12.93
2023-04-24T22:56:34.288Z,10.73
2023-04-24T22:59:00.863Z,12.95
2023-04-24T23:01:27.451Z,12.45
2023-04-24T23:03:54.651Z,10.60
2023-04-24T23:06:21.755Z,14.27
2023-04-24T23:08:48.362Z,12.20
2023-04-24T23:11:15.103Z,11.38
2023-04-24T23:13:43.754Z,14.40
2023-04-24T23:16:17.911Z,14.90
2023-04-24T23:18:44.654Z,14.32
2023-04-24T23:21:12.237Z,11.98
2023-04-24T23:23:38.812Z,15.45
2023-04-24T23:26:05.409Z,19.05
2023-04-24T23:28:32.045Z,10.85
2023-04-24T23:30:58.675Z,15.00
2023-04-24T23:33:25.407Z,11.23
2023-04-24T23:35:52.715Z,14.73
2023-04-24T23:38:19.206Z,10.35
2023-04-24T23:40:46.360Z,16.58
2023-04-24T23:43:12.942Z,13.63
2023-04-24T23:45:40.583Z,13.30
2023-04-24T23:48:07.441Z,10.98
2023-04-24T23:50:34.203Z,13.60
2023-04-24T23:53:00.953Z,14.77
2023-04-24T23:55:27.521Z,11.27
2023-04-24T23:57:54.087Z,10.65
